createdAt,value
2019-05-25T00:01:41.326Z,18.47
2019-05-25T00:04:09.085Z,11.43
2019-05-25T00:06:36.868Z,14.83
2019-05-25T00:09:06.140Z,11.77
2019-05-25T00:11:34.029Z,11.03
2019-05-25T00:14:01.898Z,11.07
2019-05-25T00:16:29.539Z,11.47
2019-05-25T00:18:57.429Z,9.53
2019-05-25T00:21:25.120Z,10.33
2019-05-25T00:23:52.863Z,9.80
2019-05-25T00:26:20.618Z,11.43
2019-05-25T00:28:48.366Z,11.00
2019-05-25T00:31:16.146Z,13.47
2019-05-25T00:33:43.917Z,14.17
2019-05-25T00:36:11.792Z,7.83
2019-05-25T00:38:39.546Z,11.27
2019-05-25T00:41:07.300Z,9.37
2019-05-25T00:43:35.184Z,8.70
2019-05-25T00:46:02.963Z,9.63
2019-05-25T00:48:32.151Z,12.60
2019-05-25T00:50:59.916Z,10.53
2019-05-25T00:53:27.677Z,10.17
2019-05-25T00:55:55.431Z,10.20
2019-05-25T00:58:23.214Z,12.47
2019-05-25T01:00:50.987Z,9.93
2019-05-25T01:03:18.636Z,11.90
2019-05-25T01:05:46.511Z,11.87
2019-05-25T01:08:14.487Z,12.20
2019-05-25T01:10:42.452Z,15.03
2019-05-25T01:13:10.326Z,13.73
2019-05-25T01:15:38.189Z,13.13
2019-05-25T01:18:05.949Z,12.00
2019-05-25T01:20:33.648Z,13.17
2019-05-25T01:23:01.494Z,11.50
2019-05-25T01:25:29.136Z,12.23
2019-05-25T01:27:57.018Z,16.53
2019-05-25T01:30:24.794Z,9.53
2019-05-25T01:32:52.658Z,10.00
2019-05-25T01:35:20.527Z,9.03
2019-05-25T01:37:48.776Z,16.73
2019-05-25T01:40:18.105Z,11.37
2019-05-25T01:42:45.748Z,12.07
2019-05-25T01:45:13.751Z,15.07
2019-05-25T01:47:41.484Z,10.47
2019-05-25T01:50:09.325Z,14.03
2019-05-25T01:52:37.250Z,10.60
2019-05-25T01:55:06.143Z,10.10
2019-05-25T01:57:34.001Z,9.23
2019-05-25T02:00:02.080Z,15.10
2019-05-25T02:02:29.945Z,11.47
2019-05-25T02:04:57.718Z,17.30
2019-05-25T02:07:25.455Z,11.83
2019-05-25T02:09:53.151Z,19.53
2019-05-25T02:12:20.912Z,12.93
2019-05-25T02:14:48.774Z,12.73
2019-05-25T02:17:16.433Z,14.40
2019-05-25T02:19:44.089Z,12.20
2019-05-25T02:22:11.757Z,13.90
2019-05-25T02:24:39.511Z,9.83
2019-05-25T02:27:07.172Z,13.37
2019-05-25T02:29:34.979Z,11.93
2019-05-25T02:32:02.832Z,11.90
2019-05-25T02:34:30.590Z,12.93
2019-05-25T02:36:58.439Z,12.67
2019-05-25T02:39:26.104Z,15.03
2019-05-25T02:41:53.995Z,11.43
2019-05-25T02:44:21.664Z,9.80
2019-05-25T02:46:49.523Z,13.73
2019-05-25T02:49:17.395Z,10.53
2019-05-25T02:51:45.152Z,12.40
2019-05-25T02:54:12.921Z,11.73
2019-05-25T02:56:40.790Z,10.37
2019-05-25T02:59:08.560Z,10.97
2019-05-25T03:01:36.318Z,11.33
2019-05-25T03:04:04.189Z,11.73
2019-05-25T03:06:32.368Z,14.10
2019-05-25T03:09:00.347Z,17.37
2019-05-25T03:11:28.294Z,11.80
2019-05-25T03:13:56.078Z,11.50
2019-05-25T03:16:23.833Z,9.27
2019-05-25T03:18:51.607Z,10.77
2019-05-25T03:21:19.473Z,12.97
2019-05-25T03:23:47.341Z,10.63
2019-05-25T03:26:15.215Z,9.20
2019-05-25T03:28:43.082Z,12.03
2019-05-25T03:31:10.746Z,7.83
2019-05-25T03:33:38.519Z,7.40
2019-05-25T03:36:06.271Z,10.37
2019-05-25T03:38:34.034Z,7.20
2019-05-25T03:41:01.787Z,11.73
2019-05-25T03:43:29.582Z,10.43
2019-05-25T03:45:57.234Z,9.13
2019-05-25T03:48:25.108Z,9.87
2019-05-25T03:50:52.855Z,12.63
2019-05-25T03:53:20.633Z,13.53
2019-05-25T03:56:02.820Z,9.70
2019-05-25T03:58:17.819Z,13.23
2019-05-25T04:00:45.452Z,9.10
2019-05-25T04:03:13.363Z,13.03
2019-05-25T04:05:41.114Z,13.03
2019-05-25T04:08:08.748Z,11.93
2019-05-25T04:10:38.779Z,12.83
2019-05-25T04:13:06.041Z,14.33
2019-05-25T04:15:33.688Z,13.57
2019-05-25T04:18:01.575Z,12.27
2019-05-25T04:20:29.347Z,11.07
2019-05-25T04:22:57.114Z,9.80
2019-05-25T04:25:24.879Z,10.90
2019-05-25T04:27:52.630Z,12.83
2019-05-25T04:30:20.615Z,14.63
2019-05-25T04:32:48.389Z,11.90
2019-05-25T04:35:16.039Z,12.03
2019-05-25T04:37:43.684Z,15.63
2019-05-25T04:40:11.571Z,13.60
2019-05-25T04:42:39.535Z,13.03
2019-05-25T04:45:07.713Z,12.77
2019-05-25T04:47:35.359Z,12.23
2019-05-25T04:50:03.353Z,9.87
2019-05-25T04:52:31.214Z,12.83
2019-05-25T04:54:59.087Z,10.07
2019-05-25T04:57:26.849Z,14.23
2019-05-25T04:59:54.615Z,9.97
2019-05-25T05:02:22.483Z,9.87
2019-05-25T05:04:50.327Z,11.83
2019-05-25T05:07:17.999Z,12.47
2019-05-25T05:09:59.590Z,10.97
2019-05-25T05:12:15.167Z,12.53
2019-05-25T05:14:44.089Z,11.90
2019-05-25T05:17:11.950Z,13.03
2019-05-25T05:19:39.709Z,14.67
2019-05-25T05:22:07.374Z,10.10
2019-05-25T05:24:35.027Z,9.57
2019-05-25T05:27:02.789Z,11.23
2019-05-25T05:29:30.677Z,9.80
2019-05-25T05:31:58.540Z,9.23
2019-05-25T05:34:26.513Z,9.10
2019-05-25T05:36:54.578Z,10.80
2019-05-25T05:39:23.277Z,10.50
2019-05-25T05:41:51.263Z,7.60
2019-05-25T05:44:19.313Z,13.27
2019-05-25T05:46:48.621Z,9.77
2019-05-25T05:49:16.594Z,10.67
2019-05-25T05:51:45.803Z,12.67
2019-05-25T05:54:14.986Z,9.17
2019-05-25T05:56:42.745Z,16.70
2019-05-25T05:59:10.415Z,9.87
2019-05-25T06:01:38.188Z,11.40
2019-05-25T06:04:05.950Z,11.07
2019-05-25T06:06:33.833Z,7.80
2019-05-25T06:09:01.587Z,10.13
2019-05-25T06:11:29.332Z,7.97
2019-05-25T06:13:57.113Z,7.03
2019-05-25T06:16:24.868Z,5.63
2019-05-25T06:18:52.756Z,8.83
2019-05-25T06:21:20.724Z,8.30
2019-05-25T06:23:48.593Z,8.50
2019-05-25T06:26:16.346Z,6.77
2019-05-25T06:28:44.122Z,5.37
2019-05-25T06:31:11.901Z,8.47
2019-05-25T06:33:39.645Z,5.83
2019-05-25T06:36:07.527Z,8.33
2019-05-25T06:38:35.188Z,7.00
2019-05-25T06:41:03.056Z,5.13
2019-05-25T06:43:30.712Z,5.60
2019-05-25T06:45:58.491Z,6.93
2019-05-25T06:48:26.246Z,4.03
2019-05-25T06:50:54.010Z,8.13
2019-05-25T06:53:21.793Z,5.90
2019-05-25T06:55:49.546Z,6.23
2019-05-25T06:58:17.418Z,10.33
2019-05-25T07:00:45.406Z,6.90
2019-05-25T07:03:13.044Z,6.47
2019-05-25T07:05:40.817Z,6.87
2019-05-25T07:08:08.685Z,7.40
2019-05-25T07:10:36.443Z,8.37
2019-05-25T07:13:04.528Z,6.07
2019-05-25T07:15:32.277Z,6.40
2019-05-25T07:18:00.153Z,6.70
2019-05-25T07:20:27.927Z,6.93
2019-05-25T07:22:55.690Z,6.53
2019-05-25T07:25:24.177Z,7.30
2019-05-25T07:27:59.641Z,5.33
2019-05-25T07:30:21.116Z,4.93
2019-05-25T07:32:48.890Z,6.60
2019-05-25T07:35:16.679Z,6.53
2019-05-25T07:37:44.429Z,9.67
2019-05-25T07:40:12.197Z,6.63
2019-05-25T07:42:39.976Z,14.27
2019-05-25T07:45:08.032Z,7.87
2019-05-25T07:47:37.665Z,8.70
2019-05-25T07:50:07.163Z,12.90
2019-05-25T07:52:34.922Z,9.07
2019-05-25T07:55:02.994Z,6.77
2019-05-25T07:57:30.705Z,8.43
2019-05-25T07:59:58.419Z,5.93
2019-05-25T08:02:26.199Z,8.00
2019-05-25T08:04:54.354Z,7.83
2019-05-25T08:07:22.228Z,9.27
2019-05-25T08:09:49.994Z,12.30
2019-05-25T08:12:17.759Z,6.67
2019-05-25T08:14:45.539Z,7.07
2019-05-25T08:17:13.395Z,6.37
2019-05-25T08:19:41.085Z,5.47
2019-05-25T08:22:08.835Z,9.67
2019-05-25T08:24:36.598Z,5.97
2019-05-25T08:27:04.268Z,5.97
2019-05-25T08:29:32.017Z,6.40
2019-05-25T08:31:59.667Z,5.57
2019-05-25T08:34:27.337Z,6.17
2019-05-25T08:36:55.124Z,6.13
2019-05-25T08:39:22.842Z,5.70
2019-05-25T08:41:50.641Z,8.50
2019-05-25T08:44:18.392Z,6.00
2019-05-25T08:46:46.180Z,6.90
2019-05-25T08:49:13.824Z,9.10
2019-05-25T08:51:41.611Z,10.27
2019-05-25T08:54:09.477Z,6.37
2019-05-25T08:56:37.255Z,7.47
2019-05-25T08:59:05.068Z,4.90
2019-05-25T09:01:32.873Z,5.20
2019-05-25T09:04:00.633Z,6.37
2019-05-25T09:06:29.436Z,5.97
2019-05-25T09:08:57.280Z,5.33
2019-05-25T09:11:25.023Z,7.87
2019-05-25T09:13:52.725Z,5.87
2019-05-25T09:16:20.594Z,6.83
2019-05-25T09:18:48.377Z,5.93
2019-05-25T09:21:16.131Z,5.57
2019-05-25T09:23:44.248Z,5.93
2019-05-25T09:26:13.568Z,5.27
2019-05-25T09:28:41.379Z,4.37
2019-05-25T09:31:09.024Z,5.27
2019-05-25T09:33:36.796Z,6.13
2019-05-25T09:36:05.491Z,7.92
2019-05-25T09:38:33.236Z,6.63
2019-05-25T09:41:01.335Z,5.47
2019-05-25T09:43:29.089Z,12.10
2019-05-25T09:45:56.966Z,4.53
2019-05-25T09:48:24.725Z,7.43
2019-05-25T09:50:52.594Z,7.10
2019-05-25T09:53:20.474Z,6.53
2019-05-25T09:55:48.233Z,7.30
2019-05-25T09:58:15.987Z,5.67
2019-05-25T10:00:43.762Z,7.67
2019-05-25T10:03:11.632Z,9.73
2019-05-25T10:05:39.364Z,6.77
2019-05-25T10:08:07.066Z,9.17
2019-05-25T10:10:34.803Z,7.83
2019-05-25T10:13:02.641Z,6.93
2019-05-25T10:15:30.362Z,6.90
2019-05-25T10:17:58.329Z,7.10
2019-05-25T10:20:26.192Z,7.80
2019-05-25T10:22:54.061Z,6.03
2019-05-25T10:25:21.935Z,6.67
2019-05-25T10:27:49.803Z,12.03
2019-05-25T10:30:17.671Z,6.00
2019-05-25T10:32:45.434Z,5.83
2019-05-25T10:35:13.401Z,5.80
2019-05-25T10:37:41.191Z,8.00
2019-05-25T10:40:09.160Z,9.93
2019-05-25T10:42:36.916Z,7.80
2019-05-25T10:45:08.059Z,7.40
2019-05-25T10:47:35.924Z,8.73
2019-05-25T10:50:05.056Z,8.23
2019-05-25T10:52:32.816Z,7.27
2019-05-25T10:55:00.493Z,10.83
2019-05-25T10:57:28.322Z,7.50
2019-05-25T10:59:56.182Z,12.80
2019-05-25T11:02:23.828Z,7.07
2019-05-25T11:04:51.605Z,7.37
2019-05-25T11:07:19.478Z,7.77
2019-05-25T11:09:47.323Z,7.33
2019-05-25T11:12:15.005Z,9.40
2019-05-25T11:14:42.661Z,14.37
2019-05-25T11:17:10.543Z,7.07
2019-05-25T11:19:38.362Z,7.47
2019-05-25T11:22:06.190Z,7.23
2019-05-25T11:24:33.946Z,9.80
2019-05-25T11:27:01.812Z,10.33
2019-05-25T11:29:29.588Z,7.40
2019-05-25T11:32:01.831Z,7.97
2019-05-25T11:34:26.692Z,12.80
2019-05-25T11:36:54.423Z,9.90
2019-05-25T11:39:22.099Z,8.73
2019-05-25T11:41:49.942Z,8.03
2019-05-25T11:44:17.712Z,14.30
2019-05-25T11:46:45.469Z,9.23
2019-05-25T11:49:22.075Z,9.93
2019-05-25T11:51:42.655Z,9.13
2019-05-25T11:54:10.511Z,7.30
2019-05-25T11:56:38.259Z,8.47
2019-05-25T11:59:05.911Z,11.80
2019-05-25T12:01:33.583Z,8.27
2019-05-25T12:04:01.371Z,6.37
2019-05-25T12:06:29.234Z,6.97
2019-05-25T12:08:56.907Z,9.30
2019-05-25T12:11:24.660Z,14.67
2019-05-25T12:13:52.651Z,8.43
2019-05-25T12:16:20.501Z,7.97
2019-05-25T12:18:48.407Z,9.33
2019-05-25T12:21:16.243Z,11.63
2019-05-25T12:23:44.009Z,11.63
2019-05-25T12:26:12.081Z,11.20
2019-05-25T12:28:39.949Z,8.50
2019-05-25T12:31:08.336Z,10.50
2019-05-25T12:33:36.302Z,10.97
2019-05-25T12:36:04.271Z,8.37
2019-05-25T12:38:31.923Z,10.63
2019-05-25T12:41:00.225Z,12.23
2019-05-25T12:43:28.190Z,9.10
2019-05-25T12:45:56.057Z,10.63
2019-05-25T12:48:23.921Z,12.70
2019-05-25T12:50:51.902Z,8.47
2019-05-25T12:53:19.645Z,8.57
2019-05-25T12:55:47.431Z,8.63
2019-05-25T12:58:15.222Z,9.00
2019-05-25T13:00:55.694Z,8.80
2019-05-25T13:03:13.389Z,5.30
2019-05-25T13:05:41.003Z,6.40
2019-05-25T13:08:08.709Z,6.23
2019-05-25T13:10:36.577Z,14.07
2019-05-25T13:13:04.441Z,8.40
2019-05-25T13:15:32.205Z,9.80
2019-05-25T13:17:59.987Z,7.67
2019-05-25T13:20:27.741Z,7.83
2019-05-25T13:22:55.508Z,8.53
2019-05-25T13:25:23.276Z,6.93
2019-05-25T13:27:50.948Z,10.47
2019-05-25T13:30:18.810Z,9.10
2019-05-25T13:32:46.878Z,14.30
2019-05-25T13:35:14.545Z,12.63
2019-05-25T13:37:42.418Z,11.60
2019-05-25T13:40:10.391Z,11.90
2019-05-25T13:42:38.288Z,12.47
2019-05-25T13:45:06.634Z,16.87
2019-05-25T13:47:34.335Z,14.40
2019-05-25T13:50:02.066Z,13.93
2019-05-25T13:52:29.761Z,12.10
2019-05-25T13:54:57.428Z,13.87
2019-05-25T13:57:25.161Z,12.13
2019-05-25T13:59:52.863Z,12.30
2019-05-25T14:02:20.571Z,8.27
2019-05-25T14:04:48.571Z,11.40
2019-05-25T14:07:16.316Z,14.93
2019-05-25T14:09:44.081Z,14.00
2019-05-25T14:12:11.836Z,12.27
2019-05-25T14:14:39.724Z,14.13
2019-05-25T14:17:07.480Z,13.33
2019-05-25T14:19:35.248Z,11.90
2019-05-25T14:22:02.984Z,10.50
2019-05-25T14:24:30.791Z,11.97
2019-05-25T14:26:58.543Z,15.37
2019-05-25T14:29:26.634Z,13.40
2019-05-25T14:31:54.480Z,12.57
2019-05-25T14:34:22.446Z,10.90
2019-05-25T14:36:50.226Z,11.27
2019-05-25T14:39:18.094Z,8.47
2019-05-25T14:41:45.749Z,10.23
2019-05-25T14:44:13.530Z,9.17
2019-05-25T14:46:41.271Z,13.10
2019-05-25T14:49:09.039Z,9.17
2019-05-25T14:51:36.827Z,9.47
2019-05-25T14:54:05.403Z,9.28
2019-05-25T14:56:33.169Z,9.33
2019-05-25T14:59:00.937Z,9.87
2019-05-25T15:01:28.684Z,9.20
2019-05-25T15:03:56.418Z,8.20
2019-05-25T15:06:24.081Z,7.73
2019-05-25T15:08:51.793Z,7.60
2019-05-25T15:11:19.662Z,7.03
2019-05-25T15:13:47.536Z,9.47
2019-05-25T15:16:15.407Z,7.83
2019-05-25T15:18:43.273Z,9.87
2019-05-25T15:21:10.916Z,10.33
2019-05-25T15:23:38.799Z,9.53
2019-05-25T15:26:06.447Z,10.80
2019-05-25T15:28:34.228Z,8.33
2019-05-25T15:31:02.099Z,10.93
2019-05-25T15:33:29.880Z,13.63
2019-05-25T15:35:57.634Z,13.73
2019-05-25T15:38:25.393Z,14.90
2019-05-25T15:40:53.267Z,12.20
2019-05-25T15:43:21.011Z,16.30
2019-05-25T15:45:48.810Z,14.57
2019-05-25T15:48:16.539Z,12.70
2019-05-25T15:50:44.338Z,13.37
2019-05-25T15:53:12.199Z,15.17
2019-05-25T15:55:39.966Z,13.30
2019-05-25T15:58:07.732Z,15.47
2019-05-25T16:00:45.530Z,20.13
2019-05-25T16:03:13.401Z,13.63
2019-05-25T16:05:41.200Z,15.13
2019-05-25T16:08:08.899Z,15.33
2019-05-25T16:10:36.604Z,17.17
2019-05-25T16:13:04.481Z,13.60
2019-05-25T16:15:32.306Z,16.97
2019-05-25T16:18:00.202Z,13.40
2019-05-25T16:20:27.961Z,12.47
2019-05-25T16:22:55.733Z,13.63
2019-05-25T16:25:23.703Z,13.70
2019-05-25T16:27:51.412Z,13.07
2019-05-25T16:30:19.221Z,12.80
2019-05-25T16:33:10.654Z,15.77
2019-05-25T16:35:16.466Z,14.77
2019-05-25T16:37:44.639Z,12.30
2019-05-25T16:40:12.812Z,16.50
2019-05-25T16:42:40.727Z,16.57
2019-05-25T16:45:09.329Z,13.73
2019-05-25T16:47:37.173Z,19.13
2019-05-25T16:50:06.156Z,21.15
2019-05-25T16:52:33.922Z,17.33
2019-05-25T16:55:01.808Z,18.60
2019-05-25T16:57:29.680Z,12.30
2019-05-25T16:59:57.320Z,13.97
2019-05-25T17:02:25.114Z,13.53
2019-05-25T17:04:52.979Z,10.43
2019-05-25T17:07:20.735Z,11.00
2019-05-25T17:09:48.511Z,9.93
2019-05-25T17:12:16.226Z,17.73
2019-05-25T17:14:44.068Z,19.87
2019-05-25T17:17:11.723Z,15.73
2019-05-25T17:19:39.449Z,10.63
2019-05-25T17:22:07.223Z,8.43
2019-05-25T17:24:35.186Z,12.80
2019-05-25T17:27:02.829Z,10.60
2019-05-25T17:29:30.638Z,9.53
2019-05-25T17:31:58.388Z,17.03
2019-05-25T17:34:26.250Z,16.23
2019-05-25T17:36:53.991Z,23.67
2019-05-25T17:39:21.901Z,29.40
2019-05-25T17:41:49.657Z,27.00
2019-05-25T17:44:17.444Z,11.03
2019-05-25T17:46:45.205Z,11.30
2019-05-25T17:49:13.072Z,9.60
2019-05-25T17:51:40.723Z,9.50
2019-05-25T17:54:08.594Z,14.10
2019-05-25T17:56:36.344Z,13.03
2019-05-25T17:59:04.021Z,18.87
2019-05-25T18:01:31.803Z,22.03
2019-05-25T18:04:07.908Z,21.03
2019-05-25T18:06:28.966Z,23.77
2019-05-25T18:08:56.632Z,19.50
2019-05-25T18:11:24.495Z,19.47
2019-05-25T18:13:52.467Z,18.93
2019-05-25T18:16:20.542Z,19.70
2019-05-25T18:18:48.284Z,19.63
2019-05-25T18:21:16.056Z,16.97
2019-05-25T18:23:43.832Z,21.20
2019-05-25T18:26:11.609Z,18.23
2019-05-25T18:28:39.479Z,21.07
2019-05-25T18:31:07.437Z,15.50
2019-05-25T18:33:35.207Z,17.63
2019-05-25T18:36:02.974Z,17.33
2019-05-25T18:38:30.858Z,21.03
2019-05-25T18:40:58.899Z,16.57
2019-05-25T18:43:26.885Z,17.40
2019-05-25T18:45:54.677Z,16.47
2019-05-25T18:48:22.518Z,20.80
2019-05-25T18:50:50.223Z,27.33
2019-05-25T18:53:17.835Z,26.27
2019-05-25T18:55:45.695Z,25.13
2019-05-25T18:58:13.583Z,20.77
2019-05-25T19:00:41.375Z,21.60
2019-05-25T19:03:09.362Z,24.77
2019-05-25T19:05:37.083Z,28.37
2019-05-25T19:08:05.455Z,20.00
2019-05-25T19:10:33.239Z,26.77
2019-05-25T19:13:00.994Z,26.93
2019-05-25T19:15:28.866Z,28.47
2019-05-25T19:17:56.717Z,31.63
2019-05-25T19:20:24.498Z,21.87
2019-05-25T19:22:52.265Z,21.60
2019-05-25T19:25:20.030Z,13.73
2019-05-25T19:27:47.649Z,12.37
2019-05-25T19:30:15.762Z,11.20
2019-05-25T19:32:43.467Z,11.47
2019-05-25T19:35:11.453Z,9.37
2019-05-25T19:37:42.250Z,8.87
2019-05-25T19:40:09.694Z,11.30
2019-05-25T19:42:37.471Z,12.30
2019-05-25T19:45:06.772Z,11.57
2019-05-25T19:47:34.763Z,10.93
2019-05-25T19:50:05.207Z,12.73
2019-05-25T19:52:31.806Z,14.43
2019-05-25T19:54:59.570Z,41.23
2019-05-25T19:57:27.641Z,25.95
2019-05-25T19:59:55.415Z,23.07
2019-05-25T20:02:23.182Z,16.63
2019-05-25T20:04:50.937Z,19.67
2019-05-25T20:07:18.631Z,17.47
2019-05-25T20:09:46.575Z,15.53
2019-05-25T20:12:14.546Z,13.53
2019-05-25T20:14:42.325Z,16.30
2019-05-25T20:17:10.076Z,16.40
2019-05-25T20:19:37.824Z,20.07
2019-05-25T20:22:08.981Z,15.33
2019-05-25T20:24:34.896Z,16.17
2019-05-25T20:27:02.683Z,19.37
2019-05-25T20:29:30.556Z,16.97
2019-05-25T20:31:58.305Z,22.17
2019-05-25T20:34:26.285Z,15.93
2019-05-25T20:36:54.126Z,19.10
2019-05-25T20:39:21.980Z,23.20
2019-05-25T20:41:49.790Z,15.33
2019-05-25T20:44:17.429Z,15.67
2019-05-25T20:46:45.316Z,12.80
2019-05-25T20:49:12.975Z,18.13
2019-05-25T20:51:40.848Z,20.67
2019-05-25T20:54:08.503Z,16.23
2019-05-25T20:56:36.378Z,16.50
2019-05-25T20:59:04.145Z,15.60
2019-05-25T21:01:32.015Z,38.07
2019-05-25T21:03:59.885Z,16.77
2019-05-25T21:06:27.628Z,11.77
2019-05-25T21:08:55.350Z,13.60
2019-05-25T21:11:23.180Z,11.90
2019-05-25T21:13:50.938Z,15.00
2019-05-25T21:16:18.706Z,18.90
2019-05-25T21:18:46.481Z,13.07
2019-05-25T21:21:14.188Z,15.47
2019-05-25T21:23:41.911Z,13.97
2019-05-25T21:26:09.679Z,16.50
2019-05-25T21:28:37.358Z,16.37
2019-05-25T21:31:05.096Z,13.13
2019-05-25T21:33:33.361Z,15.37
2019-05-25T21:36:08.281Z,17.50
2019-05-25T21:38:31.158Z,18.80
2019-05-25T21:40:58.925Z,19.43
2019-05-25T21:43:26.803Z,18.53
2019-05-25T21:45:54.474Z,15.87
2019-05-25T21:48:22.115Z,20.27
2019-05-25T21:50:50.097Z,23.90
2019-05-25T21:53:17.739Z,16.40
2019-05-25T21:55:45.520Z,26.70
2019-05-25T21:58:13.231Z,28.77
2019-05-25T22:00:42.387Z,20.70
2019-05-25T22:03:10.155Z,27.20
2019-05-25T22:05:38.018Z,24.83
2019-05-25T22:08:05.798Z,75.87
2019-05-25T22:10:33.551Z,31.50
2019-05-25T22:13:01.315Z,20.27
2019-05-25T22:15:28.947Z,15.87
2019-05-25T22:17:56.697Z,15.43
2019-05-25T22:20:24.493Z,12.97
2019-05-25T22:22:52.282Z,17.17
2019-05-25T22:25:20.058Z,13.57
2019-05-25T22:27:47.791Z,13.70
2019-05-25T22:30:15.513Z,12.90
2019-05-25T22:32:43.441Z,14.90
2019-05-25T22:35:11.314Z,17.73
2019-05-25T22:37:39.191Z,11.70
2019-05-25T22:40:07.561Z,12.73
2019-05-25T22:42:35.534Z,14.13
2019-05-25T22:45:03.515Z,20.73
2019-05-25T22:47:31.214Z,14.37
2019-05-25T22:49:59.015Z,19.77
2019-05-25T22:52:26.797Z,17.73
2019-05-25T22:54:54.673Z,22.63
2019-05-25T22:57:22.540Z,14.47
2019-05-25T22:59:50.300Z,21.17
2019-05-25T23:02:18.082Z,19.63
2019-05-25T23:04:45.818Z,19.50
2019-05-25T23:07:13.828Z,17.37
2019-05-25T23:09:41.778Z,22.13
2019-05-25T23:12:09.546Z,25.47
2019-05-25T23:14:37.517Z,21.87
2019-05-25T23:17:05.274Z,21.60
2019-05-25T23:19:34.325Z,20.83
2019-05-25T23:22:02.230Z,22.77
2019-05-25T23:24:30.019Z,21.70
2019-05-25T23:26:57.644Z,29.43
2019-05-25T23:29:25.359Z,19.83
2019-05-25T23:31:53.201Z,19.93
2019-05-25T23:34:21.074Z,18.10
2019-05-25T23:36:48.709Z,16.80
2019-05-25T23:39:16.379Z,21.53
2019-05-25T23:41:44.175Z,12.63
2019-05-25T23:44:11.811Z,17.30
2019-05-25T23:46:39.699Z,13.53
2019-05-25T23:49:07.471Z,19.13
2019-05-25T23:51:35.220Z,15.77
2019-05-25T23:54:02.997Z,18.80
2019-05-25T23:56:30.759Z,17.27
2019-05-25T23:58:58.525Z,15.13
